Аэропорт: Бегишево. Набережные Челны, Нижнекамск

ICAO: UWKE

METAR:
2020-06-02 08:30:00
UWKE 020830Z 06006MPS 9999 OVC029 13/06 Q1018 R03/090070 NOSIG RMK QFE746/0995
METAR:
2020-06-02 07:45:00
TAF UWKE 020745Z 0209/0309 05006G12MPS 9999 OVC016 TEMPO 0209/0215 6000 -SHRA BKN005 SCT020CB BECMG 0215/0217 08006G12MPS BKN020 TEMPO 0217/0309 6000 -SHRA BKN016CB